Time;durP1;ratioP1;P1;durP2;ratioP2;P2;SDS_P1;SDS_P2;PMS_P1;PMS_P2;Temp;Humidity;BMP_temperature;BMP_pressure;BME280_temperature;BME280_humidity;BME280_pressure;Samples;Min_cycle;Max_cycle;Signal;HPM_P1;HPM_P2
2021/09/24 00:01:10;;;;;;;32.28;11.65;;;11.30;90.60;;;;;;5032579;28;20049;-71
2021/09/24 00:03:38;;;;;;;32.25;11.45;;;11.30;90.70;;;;;;5049874;28;20041;-71
2021/09/24 00:06:06;;;;;;;34.58;11.65;;;11.30;90.80;;;;;;5053721;28;20052;-71
2021/09/24 00:08:33;;;;;;;28.85;11.23;;;11.30;90.80;;;;;;5053981;28;20053;-71
2021/09/24 00:11:01;;;;;;;30.45;11.35;;;11.20;90.90;;;;;;5049599;28;20068;-71
2021/09/24 00:13:29;;;;;;;30.08;11.68;;;11.20;90.90;;;;;;5034928;28;20414;-71
2021/09/24 00:15:56;;;;;;;32.83;11.32;;;11.10;90.90;;;;;;5033641;28;20045;-71
2021/09/24 00:18:24;;;;;;;28.33;10.43;;;11.10;90.90;;;;;;5040770;28;20049;-71
2021/09/24 00:20:51;;;;;;;26.95;9.75;;;11.00;91.00;;;;;;5052392;28;20045;-71
2021/09/24 00:23:19;;;;;;;24.55;8.98;;;10.90;91.00;;;;;;5053806;28;20045;-71
2021/09/24 00:25:47;;;;;;;25.63;9.50;;;10.90;91.00;;;;;;5053533;28;20055;-71
2021/09/24 00:28:14;;;;;;;32.55;11.90;;;10.80;91.10;;;;;;5052810;28;20049;-71
2021/09/24 00:30:42;;;;;;;34.83;12.38;;;10.80;91.20;;;;;;5051824;28;20063;-72
2021/09/24 00:33:09;;;;;;;37.47;12.85;;;10.80;91.20;;;;;;5039437;28;20049;-72
2021/09/24 00:35:37;;;;;;;30.58;12.13;;;10.80;91.20;;;;;;5052183;28;20048;-71
2021/09/24 00:38:05;;;;;;;35.08;12.48;;;10.70;91.30;;;;;;5053350;28;20056;-72
2021/09/24 00:40:34;;;;;;;37.97;13.77;;;10.70;91.40;;;;;;5052820;28;20053;-71
2021/09/24 00:43:03;;;;;;;41.53;12.93;;;10.70;91.50;;;;;;5053169;28;20048;-71
2021/09/24 00:45:31;;;;;;;34.88;13.70;;;10.70;91.50;;;;;;5052849;28;20402;-71
2021/09/24 00:47:58;;;;;;;39.30;11.38;;;10.70;91.60;;;;;;5052780;28;20045;-71
2021/09/24 00:50:26;;;;;;;33.42;12.23;;;10.70;91.70;;;;;;5053010;28;20061;-73
2021/09/24 00:52:54;;;;;;;33.13;10.50;;;10.70;91.60;;;;;;5052870;28;20044;-72
2021/09/24 00:55:23;;;;;;;20.17;8.82;;;10.70;91.50;;;;;;5051771;28;20037;-71
2021/09/24 00:57:51;;;;;;;30.20;10.70;;;10.60;91.50;;;;;;5052409;28;20045;-71
2021/09/24 01:00:18;;;;;;;31.00;11.15;;;10.60;91.50;;;;;;5052767;28;20072;-71
2021/09/24 01:02:47;;;;;;;34.78;12.10;;;10.50;91.60;;;;;;5041197;28;20049;-71
2021/09/24 01:05:16;;;;;;;31.40;11.27;;;10.50;91.60;;;;;;5050892;28;20037;-71
2021/09/24 01:07:45;;;;;;;37.15;13.18;;;10.40;91.50;;;;;;5051840;28;20045;-71
2021/09/24 01:10:15;;;;;;;30.88;11.80;;;10.40;91.50;;;;;;5052913;28;20502;-71
2021/09/24 01:12:44;;;;;;;27.33;10.80;;;10.30;91.60;;;;;;5052407;28;20507;-71
2021/09/24 01:15:15;;;;;;;38.30;13.55;;;10.30;91.70;;;;;;5032858;28;20056;-71
2021/09/24 01:17:44;;;;;;;32.05;12.18;;;10.40;91.70;;;;;;5032579;28;20041;-71
2021/09/24 01:20:14;;;;;;;32.63;12.32;;;10.40;91.80;;;;;;5031346;28;20129;-71
2021/09/24 01:22:42;;;;;;;31.45;13.00;;;10.40;91.80;;;;;;5032349;28;20052;-71
2021/09/24 01:25:11;;;;;;;40.63;14.50;;;10.50;91.80;;;;;;5032330;28;20037;-71
2021/09/24 01:27:39;;;;;;;34.47;13.35;;;10.50;91.80;;;;;;5032747;28;20053;-71
2021/09/24 01:30:07;;;;;;;53.13;18.42;;;10.50;91.90;;;;;;5032466;28;20057;-71
2021/09/24 01:32:35;;;;;;;49.30;17.65;;;10.60;92.30;;;;;;5033663;28;20057;-71
2021/09/24 01:35:05;;;;;;;42.92;16.00;;;10.70;92.30;;;;;;5052032;28;20045;-71
2021/09/24 01:37:34;;;;;;;45.03;16.20;;;10.80;92.40;;;;;;5052219;28;20064;-71
2021/09/24 01:40:02;;;;;;;47.33;14.82;;;11.00;92.30;;;;;;5051001;28;20406;-71
2021/09/24 01:42:29;;;;;;;35.33;14.35;;;11.20;92.40;;;;;;5050652;28;20056;-71
2021/09/24 01:44:57;;;;;;;34.97;14.45;;;11.30;92.40;;;;;;5052071;28;20049;-71
2021/09/24 01:47:24;;;;;;;36.47;12.90;;;11.30;92.50;;;;;;5051138;28;20450;-71
2021/09/24 01:50:08;;;;;;;37.42;14.55;;;11.40;92.30;;;;;;5032374;28;20486;-71
2021/09/24 01:52:37;;;;;;;40.38;13.75;;;11.40;92.50;;;;;;5032303;28;20042;-71
2021/09/24 01:55:06;;;;;;;38.03;13.32;;;11.40;92.50;;;;;;5032170;28;20053;-71
2021/09/24 01:57:34;;;;;;;37.85;12.95;;;11.40;92.50;;;;;;5032142;28;20391;-71
2021/09/24 02:00:05;;;;;;;36.15;13.27;;;11.50;92.60;;;;;;5031116;28;20045;-71
2021/09/24 02:02:32;;;;;;;40.22;13.23;;;11.40;92.50;;;;;;5033219;28;20041;-71
2021/09/24 02:05:00;;;;;;;34.50;11.00;;;11.40;92.60;;;;;;5051308;28;20041;-70
2021/09/24 02:07:28;;;;;;;39.13;11.30;;;11.50;92.70;;;;;;5051865;28;20044;-71
2021/09/24 02:09:56;;;;;;;26.80;10.13;;;11.50;92.80;;;;;;5051941;28;20056;-71
2021/09/24 02:12:23;;;;;;;22.77;9.65;;;11.40;92.70;;;;;;5051271;28;20060;-71
2021/09/24 02:14:51;;;;;;;26.85;9.57;;;11.50;92.70;;;;;;5031757;28;20049;-71
2021/09/24 02:17:19;;;;;;;25.50;9.15;;;11.40;92.60;;;;;;5031286;28;20060;-71
2021/09/24 02:19:47;;;;;;;33.70;10.77;;;11.40;92.50;;;;;;5030474;28;20057;-71
2021/09/24 02:22:14;;;;;;;28.45;10.93;;;11.30;92.40;;;;;;5031925;28;20057;-71
2021/09/24 02:24:42;;;;;;;25.98;9.70;;;11.30;92.40;;;;;;5031921;28;20060;-71
2021/09/24 02:27:10;;;;;;;21.55;8.40;;;11.20;92.60;;;;;;5031771;28;20053;-71
2021/09/24 02:29:37;;;;;;;24.45;8.95;;;11.20;92.70;;;;;;5031677;28;20052;-71
2021/09/24 02:32:05;;;;;;;19.42;8.45;;;11.20;92.90;;;;;;5031839;28;20045;-71
2021/09/24 02:34:33;;;;;;;20.50;9.65;;;11.20;92.90;;;;;;5047545;28;20052;-71
2021/09/24 02:37:01;;;;;;;26.88;8.73;;;11.10;92.90;;;;;;5051751;28;20514;-71
2021/09/24 02:39:28;;;;;;;28.73;10.82;;;11.10;92.80;;;;;;5051648;28;20061;-71
2021/09/24 02:41:56;;;;;;;30.52;10.88;;;11.20;92.80;;;;;;5051640;28;20037;-69
2021/09/24 02:44:24;;;;;;;23.05;9.93;;;11.10;92.70;;;;;;5049631;28;20049;-70
2021/09/24 02:46:51;;;;;;;22.45;8.07;;;11.00;92.60;;;;;;5048249;28;20037;-70
2021/09/24 02:49:19;;;;;;;16.73;7.18;;;11.00;92.80;;;;;;5050077;28;20056;-70
2021/09/24 02:51:46;;;;;;;14.98;5.75;;;11.00;93.00;;;;;;5051583;28;20037;-70
2021/09/24 02:54:14;;;;;;;19.77;6.05;;;11.10;93.20;;;;;;5051532;28;20060;-70
2021/09/24 02:56:41;;;;;;;12.32;5.72;;;11.20;93.00;;;;;;5051926;28;20132;-70
2021/09/24 02:59:09;;;;;;;19.65;5.38;;;11.20;92.90;;;;;;5051539;28;20040;-72
2021/09/24 03:01:38;;;;;;;17.80;6.10;;;11.20;92.80;;;;;;5051491;28;20053;-72
2021/09/24 03:04:05;;;;;;;18.92;6.13;;;11.10;92.70;;;;;;5035394;28;20045;-71
2021/09/24 03:06:33;;;;;;;12.82;5.53;;;11.10;92.80;;;;;;5029260;28;20042;-71
2021/09/24 03:09:01;;;;;;;16.58;7.53;;;11.10;92.70;;;;;;5031169;28;20049;-71
2021/09/24 03:11:29;;;;;;;18.38;7.00;;;11.00;92.70;;;;;;5039720;28;20503;-71
2021/09/24 03:13:56;;;;;;;22.08;6.85;;;11.00;92.80;;;;;;5051111;28;20506;-71
2021/09/24 03:16:24;;;;;;;10.60;6.05;;;10.90;92.70;;;;;;5051312;28;20045;-71
2021/09/24 03:18:52;;;;;;;14.82;5.30;;;10.90;92.90;;;;;;5031363;28;20072;-71
2021/09/24 03:21:19;;;;;;;16.77;6.10;;;10.90;92.90;;;;;;5031492;28;20053;-71
2021/09/24 03:23:47;;;;;;;20.67;5.85;;;10.80;92.80;;;;;;5031456;28;20050;-71
2021/09/24 03:26:18;;;;;;;10.10;4.60;;;10.80;92.80;;;;;;5031313;28;20045;-71
2021/09/24 03:28:46;;;;;;;14.88;4.85;;;10.80;93.10;;;;;;5031511;28;20049;-71
2021/09/24 03:31:14;;;;;;;12.95;5.88;;;10.80;93.10;;;;;;5034601;28;20062;-71
2021/09/24 03:33:42;;;;;;;13.60;6.05;;;10.80;92.90;;;;;;5044698;28;20052;-71
2021/09/24 03:36:10;;;;;;;17.95;6.05;;;10.80;92.70;;;;;;5053650;28;20447;-70
2021/09/24 03:38:38;;;;;;;15.57;6.22;;;10.70;92.70;;;;;;5036945;28;20044;-71
2021/09/24 03:41:05;;;;;;;19.67;6.93;;;10.70;92.80;;;;;;5053983;28;20044;-71
2021/09/24 03:43:33;;;;;;;12.20;6.32;;;10.50;92.80;;;;;;5054218;28;20044;-70
2021/09/24 03:46:00;;;;;;;17.05;6.63;;;10.50;92.90;;;;;;5054575;28;20068;-70
2021/09/24 03:48:28;;;;;;;16.90;6.53;;;10.40;92.90;;;;;;5053808;28;20045;-71
2021/09/24 03:50:56;;;;;;;16.30;6.68;;;10.40;92.90;;;;;;5054436;28;20049;-71
2021/09/24 03:53:23;;;;;;;13.90;6.40;;;10.30;92.90;;;;;;5052439;28;20053;-71
2021/09/24 03:55:53;;;;;;;18.80;6.93;;;10.20;92.80;;;;;;5054223;28;20083;-70
2021/09/24 03:58:21;;;;;;;13.13;5.95;;;10.20;93.00;;;;;;5053326;28;20049;-70
2021/09/24 04:00:49;;;;;;;14.07;6.63;;;10.10;93.00;;;;;;5054556;28;20279;-70
2021/09/24 04:03:17;;;;;;;16.50;6.65;;;10.10;93.30;;;;;;5052807;28;20066;-71
2021/09/24 04:05:45;;;;;;;14.20;6.43;;;10.10;93.40;;;;;;5052797;28;20056;-70
2021/09/24 04:08:16;;;;;;;14.40;6.18;;;10.10;93.40;;;;;;5053587;28;20052;-71
2021/09/24 04:10:43;;;;;;;16.02;6.95;;;10.10;93.30;;;;;;5052028;28;20372;-70
2021/09/24 04:13:11;;;;;;;15.18;6.63;;;10.00;93.40;;;;;;5034053;28;20038;-70
2021/09/24 04:15:38;;;;;;;17.33;7.57;;;10.00;93.40;;;;;;5033865;28;20049;-69
2021/09/24 04:18:06;;;;;;;13.90;6.68;;;10.00;93.40;;;;;;5033769;28;20041;-71
2021/09/24 04:20:34;;;;;;;18.10;6.82;;;10.00;93.30;;;;;;5033731;28;20060;-69
2021/09/24 04:23:01;;;;;;;18.08;6.57;;;10.00;93.50;;;;;;5033875;28;20052;-69
2021/09/24 04:25:29;;;;;;;15.18;6.25;;;10.00;93.50;;;;;;5032835;28;20045;-69
2021/09/24 04:27:57;;;;;;;15.90;6.93;;;10.00;93.50;;;;;;5034483;28;20046;-69
2021/09/24 04:30:24;;;;;;;12.40;7.10;;;10.00;93.50;;;;;;5033554;28;20057;-70
2021/09/24 04:32:52;;;;;;;13.73;6.80;;;10.00;93.50;;;;;;5036836;28;20502;-70
2021/09/24 04:35:20;;;;;;;20.52;7.47;;;10.00;93.60;;;;;;5053775;28;20052;-70
2021/09/24 04:37:47;;;;;;;21.23;7.50;;;10.00;93.60;;;;;;5053529;28;20049;-70
2021/09/24 04:40:15;;;;;;;11.48;6.30;;;10.10;93.70;;;;;;5052386;28;20394;-70
2021/09/24 04:42:42;;;;;;;16.58;6.90;;;10.20;93.60;;;;;;5037881;28;20403;-70
2021/09/24 04:45:11;;;;;;;12.52;5.50;;;10.30;93.70;;;;;;5033422;28;20050;-70
2021/09/24 04:47:38;;;;;;;14.32;4.95;;;10.40;93.50;;;;;;5033308;28;20070;-70
2021/09/24 04:50:07;;;;;;;13.43;4.50;;;10.60;93.40;;;;;;5033247;28;20049;-70
2021/09/24 04:52:37;;;;;;;12.70;4.97;;;10.70;93.30;;;;;;5033324;28;20042;-70
2021/09/24 04:55:06;;;;;;;10.80;5.00;;;10.80;93.20;;;;;;5031877;28;20057;-71
2021/09/24 04:57:35;;;;;;;13.38;4.38;;;10.90;93.10;;;;;;5033173;28;20041;-70
2021/09/24 05:00:06;;;;;;;16.27;4.70;;;11.00;93.00;;;;;;5031913;28;20406;-70
2021/09/24 05:02:34;;;;;;;12.40;4.18;;;11.10;92.90;;;;;;5033651;28;20045;-70
2021/09/24 05:05:01;;;;;;;14.75;4.40;;;11.20;92.90;;;;;;5033714;28;20050;-70
2021/09/24 05:07:29;;;;;;;11.93;3.83;;;11.30;92.80;;;;;;5033575;28;20049;-70
2021/09/24 05:09:57;;;;;;;9.38;3.20;;;11.30;93.00;;;;;;5033470;28;20049;-70
2021/09/24 05:12:24;;;;;;;11.07;3.28;;;11.50;93.00;;;;;;5033004;28;20054;-69
2021/09/24 05:14:52;;;;;;;8.60;3.10;;;11.60;92.90;;;;;;5031831;28;20042;-69
2021/09/24 05:17:20;;;;;;;11.05;3.47;;;11.70;92.70;;;;;;5032950;28;20506;-70
2021/09/24 05:19:47;;;;;;;9.48;3.47;;;11.80;92.60;;;;;;5041611;28;20401;-70
2021/09/24 05:22:15;;;;;;;13.57;2.75;;;11.80;92.50;;;;;;5052725;28;20394;-70
2021/09/24 05:24:42;;;;;;;9.35;2.80;;;11.90;92.40;;;;;;5052738;28;20393;-70
2021/09/24 05:27:10;;;;;;;6.72;2.67;;;11.90;92.30;;;;;;5034882;28;20057;-70
2021/09/24 05:29:37;;;;;;;7.40;3.17;;;12.00;92.30;;;;;;5052816;28;20463;-70
2021/09/24 05:32:05;;;;;;;11.88;3.08;;;12.00;92.20;;;;;;5069105;28;20079;-70
2021/09/24 05:34:33;;;;;;;8.20;2.83;;;12.10;92.10;;;;;;5071052;28;20059;-70
2021/09/24 05:37:00;;;;;;;8.48;3.22;;;12.20;92.00;;;;;;5059154;28;20049;-70
2021/09/24 05:39:28;;;;;;;8.25;2.88;;;12.20;91.90;;;;;;5052469;28;20041;-70
2021/09/24 05:41:56;;;;;;;8.35;3.60;;;12.20;91.80;;;;;;5052601;28;20064;-71
2021/09/24 05:44:23;;;;;;;10.05;3.47;;;12.30;91.70;;;;;;5052369;28;20406;-71
2021/09/24 05:46:51;;;;;;;8.77;3.38;;;12.30;91.60;;;;;;5052017;28;20693;-71
2021/09/24 05:49:18;;;;;;;8.63;3.78;;;12.30;91.50;;;;;;5051986;28;20402;-71
2021/09/24 05:51:46;;;;;;;13.15;4.47;;;12.30;91.40;;;;;;5051599;28;20059;-71
2021/09/24 05:54:14;;;;;;;12.60;4.00;;;12.30;91.30;;;;;;5052137;28;20048;-71
2021/09/24 05:56:41;;;;;;;9.80;4.32;;;12.20;91.30;;;;;;5052243;28;20048;-71
2021/09/24 05:59:09;;;;;;;14.70;4.22;;;12.30;91.20;;;;;;5044575;28;20041;-71
2021/09/24 06:01:36;;;;;;;15.80;4.13;;;12.30;91.20;;;;;;5054113;28;20068;-71
2021/09/24 06:04:04;;;;;;;12.68;3.92;;;12.30;91.10;;;;;;5072045;28;20040;-71
2021/09/24 06:06:32;;;;;;;13.13;3.92;;;12.20;91.00;;;;;;5052900;28;20518;-70
2021/09/24 06:09:02;;;;;;;8.70;4.22;;;12.30;91.00;;;;;;5031409;28;20064;-70
2021/09/24 06:11:30;;;;;;;7.55;3.55;;;12.20;91.00;;;;;;5032100;28;20045;-71
2021/09/24 06:13:57;;;;;;;12.32;4.10;;;12.30;90.90;;;;;;5071300;28;20063;-82
2021/09/24 06:16:25;;;;;;;12.15;4.07;;;12.30;90.90;;;;;;5067930;28;20045;-75
2021/09/24 06:18:55;;;;;;;8.07;3.63;;;12.30;90.90;;;;;;5030620;28;20060;-75
2021/09/24 06:21:24;;;;;;;8.15;3.50;;;12.30;90.80;;;;;;5055405;28;20052;-75
2021/09/24 06:23:52;;;;;;;8.23;3.70;;;12.30;90.80;;;;;;5039143;28;20044;-75
2021/09/24 06:26:20;;;;;;;8.85;3.38;;;12.30;90.70;;;;;;5050014;28;20053;-74
2021/09/24 06:28:48;;;;;;;10.38;3.60;;;12.40;90.60;;;;;;5030497;28;20053;-74
2021/09/24 06:31:15;;;;;;;9.60;3.45;;;12.40;90.60;;;;;;5030629;28;20052;-74
2021/09/24 06:33:43;;;;;;;15.82;3.90;;;12.50;90.50;;;;;;5040874;28;20064;-74
2021/09/24 06:36:11;;;;;;;7.40;3.50;;;12.50;90.40;;;;;;5050705;28;20055;-74
2021/09/24 06:38:38;;;;;;;10.20;3.22;;;12.50;90.30;;;;;;5046887;28;20049;-75
2021/09/24 06:41:06;;;;;;;10.38;3.70;;;12.60;90.20;;;;;;5049483;28;20049;-75
2021/09/24 06:43:33;;;;;;;11.48;3.67;;;12.70;90.20;;;;;;5034780;28;20052;-75
2021/09/24 06:46:01;;;;;;;5.07;3.40;;;12.70;90.10;;;;;;5032735;28;20046;-75
2021/09/24 06:48:29;;;;;;;12.90;3.88;;;12.70;90.00;;;;;;5045614;28;20045;-75
2021/09/24 06:50:57;;;;;;;9.00;4.63;;;12.80;89.90;;;;;;5050807;28;20048;-75
2021/09/24 06:53:24;;;;;;;7.47;4.30;;;12.80;89.80;;;;;;5046402;28;20044;-75
2021/09/24 06:55:52;;;;;;;11.07;4.80;;;12.80;89.70;;;;;;5044397;28;20379;-75
2021/09/24 06:58:19;;;;;;;10.48;5.18;;;12.80;89.60;;;;;;5057819;28;20127;-75
2021/09/24 07:00:47;;;;;;;11.45;5.10;;;12.90;89.60;;;;;;5070881;28;20214;-75
2021/09/24 07:03:15;;;;;;;13.63;5.38;;;13.00;89.40;;;;;;5071227;28;20048;-75
2021/09/24 07:05:43;;;;;;;12.02;5.80;;;12.90;89.20;;;;;;5041251;28;20036;-74
2021/09/24 07:08:10;;;;;;;15.77;5.53;;;13.00;89.10;;;;;;5055910;28;20501;-74
2021/09/24 07:10:39;;;;;;;12.98;5.22;;;13.00;89.10;;;;;;5043774;28;20041;-75
2021/09/24 07:13:06;;;;;;;11.50;5.13;;;13.00;89.00;;;;;;5032975;28;20403;-75
2021/09/24 07:15:34;;;;;;;10.48;4.95;;;13.00;89.00;;;;;;5033449;28;20060;-75
2021/09/24 07:18:03;;;;;;;9.77;5.07;;;13.00;88.90;;;;;;5035102;28;20045;-75
2021/09/24 07:20:30;;;;;;;9.18;4.80;;;13.10;88.90;;;;;;5035218;28;20053;-75
2021/09/24 07:23:18;;;;;;;12.40;4.80;;;13.10;88.80;;;;;;5050165;28;20048;-75
2021/09/24 07:25:46;;;;;;;16.27;4.55;;;13.20;88.60;;;;;;5053727;28;20049;-75
2021/09/24 07:28:14;;;;;;;12.35;3.78;;;13.20;88.60;;;;;;5054954;28;20541;-77
2021/09/24 07:30:41;;;;;;;12.45;3.35;;;13.30;88.50;;;;;;5054869;28;20067;-76
2021/09/24 07:33:09;;;;;;;8.13;3.20;;;13.30;88.50;;;;;;5045999;28;20044;-76
2021/09/24 07:35:37;;;;;;;7.88;2.60;;;13.50;88.40;;;;;;5035050;28;20045;-75
2021/09/24 07:38:04;;;;;;;7.80;2.67;;;13.60;88.20;;;;;;5033933;28;20045;-80
2021/09/24 07:40:32;;;;;;;15.65;3.45;;;13.80;87.90;;;;;;5033700;28;20033;-75
2021/09/24 07:43:00;;;;;;;9.32;2.55;;;13.90;87.60;;;;;;5034070;28;20060;-75
2021/09/24 07:45:28;;;;;;;8.20;2.85;;;14.00;87.40;;;;;;5034883;28;20121;-75
2021/09/24 07:47:55;;;;;;;10.77;2.75;;;14.00;87.10;;;;;;5027430;28;20048;-75
2021/09/24 07:50:23;;;;;;;12.43;2.67;;;14.20;86.90;;;;;;5053240;28;20403;-78
2021/09/24 07:52:50;;;;;;;7.82;2.58;;;14.20;86.60;;;;;;5054725;28;20139;-78
2021/09/24 07:55:18;;;;;;;18.15;2.38;;;14.30;86.30;;;;;;5053059;28;20438;-78
2021/09/24 07:57:49;;;;;;;14.05;2.72;;;14.30;86.20;;;;;;5036959;28;20045;-78
2021/09/24 08:00:16;;;;;;;8.63;2.50;;;14.30;85.90;;;;;;5053618;28;20386;-78
2021/09/24 08:02:44;;;;;;;11.07;3.15;;;14.40;85.80;;;;;;5054501;28;20398;-78
2021/09/24 08:05:12;;;;;;;12.23;2.88;;;14.40;85.70;;;;;;5054361;28;20384;-78
2021/09/24 08:07:39;;;;;;;9.55;2.80;;;14.50;85.70;;;;;;5054327;28;20056;-78
2021/09/24 08:10:07;;;;;;;7.80;2.78;;;14.60;85.70;;;;;;5054181;28;20055;-78
2021/09/24 08:12:35;;;;;;;10.80;3.05;;;14.60;85.70;;;;;;5036279;28;20041;-78
2021/09/24 08:15:13;;;;;;;13.23;2.60;;;14.70;85.80;;;;;;5052244;28;20053;-79
2021/09/24 08:17:41;;;;;;;14.23;3.40;;;14.70;85.70;;;;;;5054149;28;20049;-78
2021/09/24 08:20:09;;;;;;;9.88;2.80;;;14.80;85.70;;;;;;5052974;28;20052;-78
2021/09/24 08:22:38;;;;;;;6.38;2.60;;;14.80;85.60;;;;;;5053888;28;20422;-78
2021/09/24 08:25:08;;;;;;;10.45;3.00;;;14.90;85.70;;;;;;5036086;28;20057;-78
2021/09/24 08:27:37;;;;;;;8.90;2.42;;;15.10;85.60;;;;;;5052817;28;20041;-77
2021/09/24 08:30:08;;;;;;;13.93;2.80;;;15.20;85.30;;;;;;5052381;28;20143;-77
2021/09/24 08:32:39;;;;;;;13.10;3.25;;;15.30;84.90;;;;;;5053722;28;20055;-78
2021/09/24 08:35:11;;;;;;;8.63;2.47;;;15.40;84.70;;;;;;5052603;28;20052;-78
2021/09/24 08:37:39;;;;;;;6.85;2.35;;;15.50;84.20;;;;;;5053637;28;20044;-78
2021/09/24 08:40:08;;;;;;;9.70;2.40;;;15.60;84.10;;;;;;5052237;28;20047;-78
2021/09/24 08:42:40;;;;;;;11.02;2.38;;;15.70;83.80;;;;;;5053648;28;20040;-78
2021/09/24 08:45:12;;;;;;;6.20;1.92;;;15.80;83.70;;;;;;5053642;28;20506;-78
2021/09/24 08:47:39;;;;;;;5.70;2.47;;;15.90;82.80;;;;;;5053502;28;20060;-78
2021/09/24 08:50:09;;;;;;;7.13;2.20;;;15.90;82.70;;;;;;5053214;28;20056;-78
2021/09/24 08:52:38;;;;;;;10.32;2.65;;;15.80;82.70;;;;;;5053189;28;20064;-78
2021/09/24 08:55:09;;;;;;;12.77;1.95;;;15.80;82.90;;;;;;5053230;28;20052;-78
2021/09/24 08:57:37;;;;;;;9.35;1.98;;;15.80;83.20;;;;;;5053011;28;20041;-78
2021/09/24 09:00:06;;;;;;;9.00;2.03;;;16.00;83.20;;;;;;5053378;28;20044;-78
2021/09/24 09:03:11;;;;;;;7.50;2.00;;;16.30;82.80;;;;;;5053238;28;20501;-78
2021/09/24 09:05:54;;;;;;;6.15;1.60;;;16.50;82.00;;;;;;5050073;28;20041;-78
2021/09/24 09:08:33;;;;;;;4.30;1.80;;;16.70;81.50;;;;;;5050314;28;20422;-79
2021/09/24 09:11:06;;;;;;;4.82;1.15;;;16.90;81.10;;;;;;5050755;28;20060;-78
2021/09/24 09:13:42;;;;;;;18.83;1.92;;;17.10;80.30;;;;;;5049762;28;20056;-79
2021/09/24 09:16:17;;;;;;;8.73;1.38;;;17.20;80.20;;;;;;5050589;28;20525;-79
2021/09/24 09:18:49;;;;;;;4.78;1.40;;;17.30;80.00;;;;;;5050698;28;20052;-79
2021/09/24 09:21:22;;;;;;;15.40;1.60;;;17.30;79.40;;;;;;5050483;28;20057;-79
2021/09/24 09:23:52;;;;;;;3.17;1.20;;;17.40;79.60;;;;;;5050587;28;20394;-78
2021/09/24 09:26:22;;;;;;;8.45;1.52;;;17.40;79.50;;;;;;5033953;28;20049;-78
2021/09/24 09:28:56;;;;;;;10.27;1.83;;;17.50;79.20;;;;;;5050031;28;20041;-78
2021/09/24 09:31:33;;;;;;;3.95;0.98;;;17.40;79.20;;;;;;5050425;28;20576;-78
2021/09/24 09:34:34;;;;;;;11.30;1.10;;;17.50;79.30;;;;;;5050402;28;20507;-79
2021/09/24 09:37:16;;;;;;;3.30;1.08;;;17.50;79.30;;;;;;5049979;28;20122;-79
2021/09/24 09:39:44;;;;;;;4.55;1.10;;;17.60;78.90;;;;;;5051384;28;20636;-78
2021/09/24 09:42:13;;;;;;;7.30;1.55;;;17.60;79.20;;;;;;5052597;28;20068;-78
2021/09/24 09:44:41;;;;;;;4.78;1.25;;;17.60;79.30;;;;;;5051300;28;20120;-78
2021/09/24 09:47:11;;;;;;;9.30;1.42;;;17.70;79.10;;;;;;5051144;28;20049;-78
2021/09/24 09:49:39;;;;;;;16.92;1.63;;;17.80;79.30;;;;;;5052291;28;20057;-78
2021/09/24 09:52:12;;;;;;;5.07;1.40;;;17.80;79.50;;;;;;5052432;28;20053;-78
2021/09/24 09:54:39;;;;;;;3.70;1.40;;;17.80;79.70;;;;;;5052294;28;20044;-79
2021/09/24 09:57:11;;;;;;;5.90;1.30;;;17.80;79.70;;;;;;5051957;28;20053;-79
2021/09/24 09:59:39;;;;;;;11.93;1.65;;;17.80;79.60;;;;;;5051101;28;20041;-78
2021/09/24 10:02:12;;;;;;;3.95;1.27;;;17.80;79.60;;;;;;5052276;28;20055;-78
2021/09/24 10:04:45;;;;;;;2.83;0.93;;;18.00;79.50;;;;;;5050909;28;20046;-78
2021/09/24 10:07:18;;;;;;;4.45;1.00;;;18.20;79.10;;;;;;5052020;28;20072;-78
2021/09/24 10:09:47;;;;;;;1.42;0.82;;;18.30;78.50;;;;;;5052212;28;20410;-78
2021/09/24 10:12:22;;;;;;;4.72;1.10;;;18.40;77.80;;;;;;5051930;28;20052;-78
2021/09/24 10:14:51;;;;;;;68.95;3.85;;;18.50;77.80;;;;;;5052057;28;20052;-79
2021/09/24 10:17:22;;;;;;;1.42;0.60;;;18.60;77.70;;;;;;5052204;28;20048;-79
2021/09/24 10:19:51;;;;;;;7.80;1.00;;;18.60;77.30;;;;;;5050665;28;20048;-78
2021/09/24 10:22:19;;;;;;;6.20;0.93;;;18.50;77.20;;;;;;5052008;28;20048;-78
2021/09/24 10:24:47;;;;;;;4.18;0.68;;;18.50;77.40;;;;;;5051681;28;20053;-77
2021/09/24 10:27:25;;;;;;;2.47;0.82;;;18.60;77.50;;;;;;5052421;28;20486;-78
2021/09/24 10:29:54;;;;;;;1.65;0.80;;;18.60;77.30;;;;;;5052041;28;20052;-77
2021/09/24 10:32:27;;;;;;;11.73;1.00;;;18.70;77.50;;;;;;5051883;28;20049;-77
2021/09/24 10:35:11;;;;;;;3.65;0.80;;;18.80;77.20;;;;;;5051614;28;20049;-77
2021/09/24 10:37:46;;;;;;;;;;;19.00;76.80;;;;;;5052285;28;20074;-78
2021/09/24 10:40:20;;;;;;;2.85;0.90;;;19.00;76.80;;;;;;5054706;28;20397;-78
2021/09/24 10:42:51;;;;;;;18.08;1.52;;;19.00;76.70;;;;;;5054764;28;20056;-78
2021/09/24 10:45:40;;;;;;;1.20;0.52;;;19.00;76.10;;;;;;5037718;28;20041;-78
2021/09/24 10:48:16;;;;;;;13.07;1.42;;;18.90;76.20;;;;;;5055791;28;20048;-78
2021/09/24 10:50:45;;;;;;;2.58;0.70;;;19.00;76.60;;;;;;5055733;28;20044;-78
2021/09/24 10:53:24;;;;;;;6.55;0.60;;;19.00;76.50;;;;;;5055685;28;20494;-78
2021/09/24 10:55:54;;;;;;;3.97;0.65;;;19.10;76.40;;;;;;5056348;28;20510;-79
2021/09/24 10:58:28;;;;;;;6.35;0.77;;;19.30;76.10;;;;;;5054238;28;20418;-79
2021/09/24 11:01:11;;;;;;;2.58;0.90;;;19.40;75.70;;;;;;5054505;28;20044;-79
2021/09/24 11:03:55;;;;;;;2.67;0.60;;;19.50;75.50;;;;;;5056165;28;20052;-79
2021/09/24 11:06:36;;;;;;;;;;;19.70;75.40;;;;;;5055814;28;20049;-79
2021/09/24 11:09:07;;;;;;;6.03;0.77;;;19.80;75.10;;;;;;5055636;28;19920;-79
2021/09/24 11:11:36;;;;;;;6.18;1.00;;;19.90;74.70;;;;;;5054164;28;20037;-79
2021/09/24 11:14:38;;;;;;;3.30;0.70;;;20.10;74.60;;;;;;5055189;28;20060;-79
2021/09/24 11:17:08;;;;;;;9.95;1.05;;;20.30;74.20;;;;;;5055132;28;20052;-79
2021/09/24 11:19:45;;;;;;;1.33;0.60;;;20.30;73.80;;;;;;5055392;28;20040;-79
2021/09/24 11:22:22;;;;;;;9.25;0.90;;;20.40;73.90;;;;;;5055137;28;20486;-79
2021/09/24 11:24:59;;;;;;;3.17;0.80;;;20.50;74.00;;;;;;5055076;28;20053;-78
2021/09/24 11:27:35;;;;;;;32.58;2.03;;;20.60;74.10;;;;;;5055216;28;20494;-78
2021/09/24 11:30:04;;;;;;;6.18;0.82;;;20.80;73.40;;;;;;5053906;28;20045;-78
2021/09/24 11:32:43;;;;;;;7.20;0.73;;;20.80;73.20;;;;;;5053208;28;20057;-77
2021/09/24 11:35:13;;;;;;;2.50;0.60;;;20.80;73.20;;;;;;5054921;28;20064;-77
2021/09/24 11:37:46;;;;;;;0.93;0.60;;;20.80;73.10;;;;;;5054924;28;20056;-77
2021/09/24 11:40:20;;;;;;;2.47;0.60;;;20.60;73.50;;;;;;5054981;28;20041;-78
2021/09/24 11:42:53;;;;;;;14.43;1.40;;;20.50;74.10;;;;;;5037018;28;20056;-78
2021/09/24 11:45:25;;;;;;;10.75;1.23;;;20.40;74.30;;;;;;5054609;28;20053;-77
2021/09/24 11:48:10;;;;;;;13.70;1.00;;;20.30;74.70;;;;;;5054792;28;20045;-77
2021/09/24 11:50:38;;;;;;;0.43;0.40;;;20.30;75.10;;;;;;5053620;28;20044;-77
2021/09/24 11:53:12;;;;;;;10.68;0.93;;;20.30;75.10;;;;;;5054387;28;20041;-77
2021/09/24 11:55:44;;;;;;;4.25;1.40;;;20.20;75.40;;;;;;5054433;28;20053;-77
2021/09/24 11:58:26;;;;;;;2.42;0.77;;;20.20;75.70;;;;;;5053341;28;20055;-77
2021/09/24 12:00:56;;;;;;;5.40;0.80;;;20.20;75.80;;;;;;5052979;28;20056;-77
2021/09/24 12:03:25;;;;;;;0.98;0.50;;;20.30;75.70;;;;;;5052987;28;20498;-78
2021/09/24 12:05:56;;;;;;;21.02;1.45;;;20.30;75.40;;;;;;5054133;28;20048;-78
2021/09/24 12:08:46;;;;;;;7.35;0.60;;;20.30;75.50;;;;;;5054233;28;20053;-78
2021/09/24 12:11:19;;;;;;;14.38;1.20;;;20.20;75.60;;;;;;5053216;28;20426;-77
2021/09/24 12:13:48;;;;;;;1.33;0.38;;;20.20;75.80;;;;;;5054141;28;20048;-77
2021/09/24 12:16:25;;;;;;;7.63;0.70;;;20.20;76.00;;;;;;5054000;28;20406;-77
2021/09/24 12:19:00;;;;;;;10.18;0.90;;;20.10;76.20;;;;;;5054156;28;20478;-78
2021/09/24 12:21:46;;;;;;;3.42;0.80;;;20.20;76.40;;;;;;5054235;28;20049;-78
2021/09/24 12:24:45;;;;;;;4.47;0.70;;;20.30;76.50;;;;;;5053922;28;20044;-78
2021/09/24 12:27:35;;;;;;;4.18;0.85;;;20.40;76.30;;;;;;5036465;28;20479;-78
2021/09/24 12:30:18;;;;;;;5.03;0.75;;;20.50;76.10;;;;;;5053822;28;20379;-78
2021/09/24 12:32:45;;;;;;;9.90;1.00;;;20.60;76.00;;;;;;5052830;28;20049;-78
2021/09/24 12:35:13;;;;;;;17.27;1.33;;;20.70;76.20;;;;;;5053896;28;20041;-78
2021/09/24 12:37:43;;;;;;;8.43;1.10;;;20.80;75.80;;;;;;5053829;28;20060;-78
2021/09/24 12:40:13;;;;;;;1.95;0.70;;;20.90;75.70;;;;;;5053693;28;20056;-78
2021/09/24 12:42:43;;;;;;;21.55;1.77;;;21.20;75.00;;;;;;5052646;28;20041;-79
2021/09/24 12:45:32;;;;;;;5.53;0.85;;;21.30;74.40;;;;;;5053745;28;20573;-78
2021/09/24 12:48:13;;;;;;;7.05;0.80;;;21.50;74.00;;;;;;5052514;28;20041;-79
2021/09/24 12:50:43;;;;;;;1.25;0.63;;;21.80;73.10;;;;;;5053943;28;20044;-78
2021/09/24 12:53:15;;;;;;;21.00;1.02;;;21.80;72.20;;;;;;5054069;28;20485;-78
2021/09/24 12:55:44;;;;;;;;;;;21.80;71.50;;;;;;5054023;28;20402;-78